Time;durP1;ratioP1;P1;durP2;ratioP2;P2;SDS_P1;SDS_P2;PMS_P1;PMS_P2;Temp;Humidity;BMP_temperature;BMP_pressure;BME280_temperature;BME280_humidity;BME280_pressure;Samples;Min_cycle;Max_cycle;Signal;HPM_P1;HPM_P2
2021/10/15 00:00:47;;;;;;;2.42;2.33;;;;;;;;;;4994960;28;20219;-81
2021/10/15 00:03:14;;;;;;;2.25;2.05;;;;;;;;;;4994885;28;20200;-81
2021/10/15 00:05:43;;;;;;;2.58;2.38;;;;;;;;;;4995676;28;20208;-81
2021/10/15 00:08:10;;;;;;;2.97;2.78;;;;;;;;;;4994907;28;20224;-81
2021/10/15 00:10:38;;;;;;;3.53;2.80;;;;;;;;;;4994002;28;20561;-81
2021/10/15 00:13:05;;;;;;;2.38;2.17;;;;;;;;;;4994989;28;20568;-81
2021/10/15 00:15:33;;;;;;;1.70;1.60;;;;;;;;;;4995376;28;20204;-81
2021/10/15 00:18:01;;;;;;;2.60;2.40;;;;;;;;;;4994762;28;20230;-81
2021/10/15 00:20:29;;;;;;;1.90;1.80;;;;;;;;;;4995566;28;20227;-81
2021/10/15 00:22:56;;;;;;;1.58;1.48;;;;;;;;;;4994950;28;20226;-81
2021/10/15 00:25:24;;;;;;;1.80;1.70;;;;;;;;;;4994079;28;20214;-81
2021/10/15 00:27:51;;;;;;;2.08;1.95;;;;;;;;;;4995038;28;20226;-81
2021/10/15 00:30:19;;;;;;;2.75;2.55;;;;;;;;;;4994358;28;20204;-81
2021/10/15 00:32:46;;;;;;;2.75;2.40;;;;;;;;;;4994016;28;20211;-81
2021/10/15 00:35:15;;;;;;;2.00;1.88;;;;;;;;;;4994651;28;20187;-81
2021/10/15 00:37:44;;;;;;;3.60;2.05;;;;;;;;;;4998311;28;20230;-81
2021/10/15 00:40:13;;;;;;;2.38;2.15;;;;;;;;;;4997229;28;20765;-81
2021/10/15 00:42:40;;;;;;;2.00;1.90;;;;;;;;;;4997319;28;20593;-81
2021/10/15 00:45:14;;;;;;;2.50;2.30;;;;;;;;;;4998172;28;20199;-81
2021/10/15 00:47:42;;;;;;;1.70;1.60;;;;;;;;;;4997535;28;20224;-81
2021/10/15 00:50:09;;;;;;;2.30;2.10;;;;;;;;;;4998008;28;20563;-81
2021/10/15 00:52:41;;;;;;;1.60;1.50;;;;;;;;;;4998560;28;20698;-81
2021/10/15 00:55:09;;;;;;;1.85;1.70;;;;;;;;;;4998412;28;20184;-81
2021/10/15 00:57:36;;;;;;;2.10;1.98;;;;;;;;;;4997950;28;20239;-81
2021/10/15 01:00:05;;;;;;;2.22;1.70;;;;;;;;;;4998495;28;20210;-81
2021/10/15 01:02:33;;;;;;;3.33;2.10;;;;;;;;;;4998474;28;20228;-81
2021/10/15 01:05:00;;;;;;;2.00;1.83;;;;;;;;;;4998534;28;20200;-81
2021/10/15 01:07:28;;;;;;;2.00;1.90;;;;;;;;;;4998482;28;20606;-81
2021/10/15 01:09:57;;;;;;;1.90;1.77;;;;;;;;;;4997750;28;20184;-81
2021/10/15 01:12:25;;;;;;;2.13;2.00;;;;;;;;;;4997671;28;20191;-81
2021/10/15 01:14:53;;;;;;;1.60;1.50;;;;;;;;;;4998570;28;20184;-81
2021/10/15 01:17:21;;;;;;;2.20;2.00;;;;;;;;;;4997849;28;20223;-81
2021/10/15 01:19:54;;;;;;;1.80;1.70;;;;;;;;;;4998035;28;20738;-80
2021/10/15 01:22:21;;;;;;;1.70;1.60;;;;;;;;;;4997122;28;20278;-81
2021/10/15 01:24:49;;;;;;;2.20;2.08;;;;;;;;;;4997025;28;20572;-81
2021/10/15 01:27:16;;;;;;;1.80;1.67;;;;;;;;;;4998340;28;20207;-80
2021/10/15 01:29:44;;;;;;;1.70;1.60;;;;;;;;;;4997480;28;20190;-81
2021/10/15 01:32:13;;;;;;;2.00;1.52;;;;;;;;;;4997033;28;20191;-81
2021/10/15 01:34:42;;;;;;;2.63;2.30;;;;;;;;;;4997178;28;20218;-81
2021/10/15 01:37:10;;;;;;;2.40;2.20;;;;;;;;;;4997092;28;20194;-81
2021/10/15 01:39:38;;;;;;;1.90;1.80;;;;;;;;;;4997312;28;20188;-81
2021/10/15 01:42:53;;;;;;;2.22;2.08;;;;;;;;;;4996931;28;20230;-81
2021/10/15 01:44:54;;;;;;;3.38;3.08;;;;;;;;;;4997604;28;20574;-81
2021/10/15 01:47:21;;;;;;;2.28;2.08;;;;;;;;;;4996766;28;20230;-81
2021/10/15 01:49:50;;;;;;;3.67;2.35;;;;;;;;;;4996975;28;20184;-81
2021/10/15 01:52:18;;;;;;;4.22;2.10;;;;;;;;;;4997198;28;20227;-81
2021/10/15 01:54:46;;;;;;;2.15;2.05;;;;;;;;;;4997851;28;20189;-81
2021/10/15 01:57:13;;;;;;;1.83;1.73;;;;;;;;;;4996648;28;20671;-81
2021/10/15 01:59:41;;;;;;;1.90;1.80;;;;;;;;;;4996714;28;20215;-81
2021/10/15 02:02:08;;;;;;;1.38;1.38;;;;;;;;;;4996915;28;20211;-81
2021/10/15 02:04:36;;;;;;;1.52;1.30;;;;;;;;;;4996772;28;20206;-82
2021/10/15 02:07:03;;;;;;;1.90;1.80;;;;;;;;;;4996703;28;20287;-81
2021/10/15 02:09:32;;;;;;;1.75;1.65;;;;;;;;;;4997529;28;20196;-81
2021/10/15 02:12:02;;;;;;;1.80;1.70;;;;;;;;;;4997238;28;20180;-80
2021/10/15 02:14:30;;;;;;;2.53;2.20;;;;;;;;;;4997377;28;20191;-82
2021/10/15 02:16:58;;;;;;;2.25;1.90;;;;;;;;;;4996285;28;20192;-81
2021/10/15 02:19:26;;;;;;;1.75;1.65;;;;;;;;;;4996985;28;20202;-81
2021/10/15 02:21:53;;;;;;;2.63;2.40;;;;;;;;;;4996162;28;20204;-81
2021/10/15 02:24:21;;;;;;;3.63;2.80;;;;;;;;;;4995951;28;20214;-81
2021/10/15 02:26:50;;;;;;;1.90;1.80;;;;;;;;;;4996231;28;20219;-81
2021/10/15 02:29:18;;;;;;;2.08;1.92;;;;;;;;;;4995935;28;20391;-81
2021/10/15 02:31:45;;;;;;;2.00;1.90;;;;;;;;;;4995549;28;20782;-81
2021/10/15 02:34:13;;;;;;;2.67;2.10;;;;;;;;;;4995700;28;20194;-81
2021/10/15 02:36:40;;;;;;;2.60;1.95;;;;;;;;;;4995039;28;20204;-82
2021/10/15 02:39:08;;;;;;;2.33;2.03;;;;;;;;;;4995556;28;20231;-81
2021/10/15 02:41:37;;;;;;;2.05;1.83;;;;;;;;;;4995419;28;20210;-81
2021/10/15 02:44:06;;;;;;;2.10;2.00;;;;;;;;;;4994917;28;20250;-81
2021/10/15 02:46:34;;;;;;;2.00;1.90;;;;;;;;;;4995266;28;20576;-80
2021/10/15 02:49:02;;;;;;;1.90;1.70;;;;;;;;;;4996144;28;20235;-79
2021/10/15 02:51:29;;;;;;;1.75;1.65;;;;;;;;;;4996452;28;20227;-80
2021/10/15 02:53:57;;;;;;;2.47;1.67;;;;;;;;;;4996771;28;20204;-80
2021/10/15 02:56:24;;;;;;;1.80;1.70;;;;;;;;;;4997475;28;20204;-81
2021/10/15 02:58:52;;;;;;;3.28;2.38;;;;;;;;;;4995507;28;20227;-81
2021/10/15 03:01:21;;;;;;;1.63;1.52;;;;;;;;;;4981605;28;20902;-81
2021/10/15 03:03:49;;;;;;;2.75;2.15;;;;;;;;;;4976943;28;20196;-81
2021/10/15 03:06:17;;;;;;;2.47;2.28;;;;;;;;;;4976965;28;20259;-82
2021/10/15 03:08:44;;;;;;;2.65;2.45;;;;;;;;;;4977197;28;20271;-81
2021/10/15 03:11:12;;;;;;;2.00;1.90;;;;;;;;;;4975615;28;20635;-81
2021/10/15 03:13:39;;;;;;;1.65;1.55;;;;;;;;;;4977097;28;20264;-81
2021/10/15 03:16:06;;;;;;;3.83;2.08;;;;;;;;;;4976533;28;20211;-81
2021/10/15 03:18:35;;;;;;;3.55;2.30;;;;;;;;;;4976080;28;20247;-83
2021/10/15 03:21:03;;;;;;;1.90;1.80;;;;;;;;;;4977866;28;20216;-80
2021/10/15 03:23:30;;;;;;;2.40;1.95;;;;;;;;;;4976645;28;20675;-83
2021/10/15 03:25:58;;;;;;;2.65;2.17;;;;;;;;;;4977059;28;20567;-84
2021/10/15 03:28:27;;;;;;;2.00;1.80;;;;;;;;;;4977879;28;20229;-84
2021/10/15 03:30:54;;;;;;;1.58;1.48;;;;;;;;;;4976892;28;20203;-83
2021/10/15 03:33:23;;;;;;;1.70;1.60;;;;;;;;;;4977708;28;20188;-82
2021/10/15 03:35:52;;;;;;;1.95;1.60;;;;;;;;;;4977530;28;20208;-83
2021/10/15 03:38:21;;;;;;;1.40;1.30;;;;;;;;;;4977034;28;20212;-86
2021/10/15 03:40:48;;;;;;;1.10;1.10;;;;;;;;;;4977618;28;20208;-85
2021/10/15 03:43:16;;;;;;;4.32;2.10;;;;;;;;;;4977094;28;20228;-82
2021/10/15 03:45:43;;;;;;;1.92;1.83;;;;;;;;;;4975858;28;20576;-82
2021/10/15 03:48:11;;;;;;;2.92;2.42;;;;;;;;;;4974289;28;20224;-81
2021/10/15 03:50:38;;;;;;;2.30;2.10;;;;;;;;;;4974039;28;20204;-83
2021/10/15 03:53:07;;;;;;;1.80;1.70;;;;;;;;;;4973576;28;20722;-81
2021/10/15 03:55:35;;;;;;;2.47;1.70;;;;;;;;;;4973873;28;20569;-81
2021/10/15 03:58:02;;;;;;;2.50;2.05;;;;;;;;;;4974127;28;20234;-81
2021/10/15 04:00:30;;;;;;;2.00;1.90;;;;;;;;;;4974129;28;20192;-81
2021/10/15 04:02:58;;;;;;;1.98;1.88;;;;;;;;;;4974324;28;20208;-81
2021/10/15 04:05:25;;;;;;;3.78;2.50;;;;;;;;;;4973612;28;20211;-81
2021/10/15 04:07:53;;;;;;;1.80;1.70;;;;;;;;;;4973857;28;20232;-82
2021/10/15 04:10:21;;;;;;;1.63;1.52;;;;;;;;;;4974295;28;20211;-81
2021/10/15 04:12:49;;;;;;;3.63;2.08;;;;;;;;;;4977711;28;20184;-81
2021/10/15 04:15:16;;;;;;;1.70;1.60;;;;;;;;;;4977702;28;20185;-81
2021/10/15 04:17:44;;;;;;;1.80;1.70;;;;;;;;;;4977333;28;20239;-81
2021/10/15 04:20:12;;;;;;;2.10;2.00;;;;;;;;;;4977668;28;20210;-81
2021/10/15 04:22:39;;;;;;;2.22;2.13;;;;;;;;;;4977008;28;20721;-81
2021/10/15 04:25:08;;;;;;;2.83;2.55;;;;;;;;;;4977832;28;20208;-81
2021/10/15 04:27:37;;;;;;;2.03;1.92;;;;;;;;;;4977099;28;20231;-81
2021/10/15 04:30:06;;;;;;;2.30;2.15;;;;;;;;;;4977471;28;20214;-81
2021/10/15 04:32:33;;;;;;;2.75;2.05;;;;;;;;;;4977481;28;20204;-82
2021/10/15 04:35:01;;;;;;;1.70;1.58;;;;;;;;;;4976910;28;20208;-81
2021/10/15 04:37:28;;;;;;;2.50;2.03;;;;;;;;;;4976865;28;20224;-81
2021/10/15 04:39:57;;;;;;;2.83;2.63;;;;;;;;;;4977818;28;20216;-81
2021/10/15 04:42:24;;;;;;;1.80;1.70;;;;;;;;;;4976404;28;20207;-81
2021/10/15 04:44:53;;;;;;;2.13;2.03;;;;;;;;;;4976415;28;20208;-82
2021/10/15 04:47:20;;;;;;;2.25;2.10;;;;;;;;;;4976927;28;20224;-81
2021/10/15 04:49:48;;;;;;;2.03;1.83;;;;;;;;;;4976857;28;20208;-81
2021/10/15 04:52:15;;;;;;;1.63;1.52;;;;;;;;;;4976361;28;20330;-81
2021/10/15 04:54:42;;;;;;;2.65;2.10;;;;;;;;;;4976862;28;20181;-81
2021/10/15 04:57:10;;;;;;;2.08;1.98;;;;;;;;;;4976669;28;20215;-81
2021/10/15 04:59:37;;;;;;;2.15;1.90;;;;;;;;;;4977195;28;20210;-82
2021/10/15 05:02:06;;;;;;;2.50;2.30;;;;;;;;;;4976606;28;20205;-82
2021/10/15 05:04:34;;;;;;;2.50;2.30;;;;;;;;;;4979552;28;20224;-82
2021/10/15 05:07:01;;;;;;;2.50;2.30;;;;;;;;;;4976288;28;20204;-82
2021/10/15 05:09:35;;;;;;;2.10;1.83;;;;;;;;;;4976863;28;20193;-82
2021/10/15 05:12:05;;;;;;;2.33;2.00;;;;;;;;;;4976994;28;20199;-82
2021/10/15 05:14:34;;;;;;;2.63;2.42;;;;;;;;;;4976821;28;20193;-82
2021/10/15 05:17:04;;;;;;;3.10;2.80;;;;;;;;;;4976464;28;20659;-82
2021/10/15 05:19:32;;;;;;;3.08;2.72;;;;;;;;;;4977253;28;20235;-82
2021/10/15 05:22:00;;;;;;;2.97;2.67;;;;;;;;;;4975628;28;20189;-82
2021/10/15 05:24:28;;;;;;;2.90;2.70;;;;;;;;;;4976471;28;20209;-82
2021/10/15 05:26:56;;;;;;;3.08;2.60;;;;;;;;;;4976358;28;20274;-82
2021/10/15 05:29:23;;;;;;;2.47;2.33;;;;;;;;;;4976296;28;20235;-82
2021/10/15 05:31:50;;;;;;;2.63;2.30;;;;;;;;;;4975750;28;20210;-81
2021/10/15 05:34:19;;;;;;;3.60;3.03;;;;;;;;;;4975998;28;20188;-82
2021/10/15 05:36:47;;;;;;;3.20;2.90;;;;;;;;;;4976242;28;20208;-82
2021/10/15 05:39:14;;;;;;;4.32;2.85;;;;;;;;;;4976393;28;20231;-82
2021/10/15 05:41:42;;;;;;;2.70;2.47;;;;;;;;;;4976420;28;20204;-82
2021/10/15 05:44:10;;;;;;;5.28;3.25;;;;;;;;;;4976386;28;20215;-82
2021/10/15 05:46:37;;;;;;;3.22;2.88;;;;;;;;;;4976121;28;20189;-82
2021/10/15 05:49:07;;;;;;;3.00;2.70;;;;;;;;;;4975856;28;20220;-81
2021/10/15 05:51:40;;;;;;;3.25;2.95;;;;;;;;;;4974754;28;20237;-81
2021/10/15 05:54:09;;;;;;;3.50;2.72;;;;;;;;;;4976232;28;20195;-82
2021/10/15 05:59:18;;;;;;;3.50;2.90;;;;;;;;;;4942637;28;20220;-82
2021/10/15 06:01:45;;;;;;;3.10;2.83;;;;;;;;;;4975631;28;20207;-82
2021/10/15 06:04:46;;;;;;;2.55;2.30;;;;;;;;;;4977277;28;20725;-81
2021/10/15 06:15:28;;;;;;;2.63;2.42;;;;;;;;;;4965877;28;20208;-82
2021/10/15 06:17:56;;;;;;;2.88;2.67;;;;;;;;;;4967107;28;20212;-81
2021/10/15 06:20:24;;;;;;;2.78;2.45;;;;;;;;;;4985751;28;20663;-81
2021/10/15 06:22:53;;;;;;;3.50;3.28;;;;;;;;;;4995290;28;20188;-81
2021/10/15 06:25:20;;;;;;;3.33;2.90;;;;;;;;;;4989825;28;20211;-82
2021/10/15 06:27:47;;;;;;;2.60;2.40;;;;;;;;;;4994881;28;20227;-81
2021/10/15 06:30:15;;;;;;;3.25;2.50;;;;;;;;;;4994729;28;20188;-82
2021/10/15 06:32:42;;;;;;;3.58;3.17;;;;;;;;;;4956237;28;20210;-82
2021/10/15 06:35:10;;;;;;;3.63;2.58;;;;;;;;;;4955702;29;20664;-80
2021/10/15 06:37:38;;;;;;;3.30;3.05;;;;;;;;;;4962933;28;20930;-82
2021/10/15 06:40:08;;;;;;;3.67;3.00;;;;;;;;;;4984278;28;20664;-81
2021/10/15 06:42:36;;;;;;;3.22;3.03;;;;;;;;;;4975115;28;20200;-81
2021/10/15 06:45:05;;;;;;;3.53;2.88;;;;;;;;;;4979232;28;20674;-81
2021/10/15 06:47:32;;;;;;;6.07;3.35;;;;;;;;;;4967960;28;20229;-81
2021/10/15 06:50:00;;;;;;;3.88;3.00;;;;;;;;;;4983278;28;20269;-81
2021/10/15 06:52:27;;;;;;;3.42;3.13;;;;;;;;;;4994187;28;20243;-80
2021/10/15 06:54:55;;;;;;;2.80;2.60;;;;;;;;;;4978321;28;20193;-80
2021/10/15 06:57:23;;;;;;;3.30;3.00;;;;;;;;;;4977803;28;20217;-81
2021/10/15 06:59:51;;;;;;;2.50;2.30;;;;;;;;;;4994327;28;20200;-80
2021/10/15 07:02:18;;;;;;;2.90;2.58;;;;;;;;;;4977863;28;20670;-79
2021/10/15 07:04:46;;;;;;;2.47;2.30;;;;;;;;;;4990607;28;20208;-80
2021/10/15 07:07:13;;;;;;;2.50;2.10;;;;;;;;;;4960377;28;20213;-81
2021/10/15 07:09:41;;;;;;;3.08;2.70;;;;;;;;;;4955898;29;20189;-81
2021/10/15 07:12:08;;;;;;;3.50;3.20;;;;;;;;;;4970794;28;20685;-80
2021/10/15 07:14:37;;;;;;;3.10;2.80;;;;;;;;;;4974539;28;20200;-79
2021/10/15 07:17:05;;;;;;;4.35;3.20;;;;;;;;;;4978850;28;20204;-79
2021/10/15 07:19:32;;;;;;;3.60;3.00;;;;;;;;;;4990366;28;20670;-80
2021/10/15 07:22:00;;;;;;;3.25;2.95;;;;;;;;;;4993980;28;20187;-80
2021/10/15 07:24:28;;;;;;;3.00;2.70;;;;;;;;;;4993506;28;20223;-81
2021/10/15 07:26:55;;;;;;;3.03;2.83;;;;;;;;;;4993864;28;20184;-81
2021/10/15 07:29:23;;;;;;;3.10;2.90;;;;;;;;;;4992112;28;20227;-80
2021/10/15 07:31:51;;;;;;;3.08;2.67;;;;;;;;;;4993445;28;20203;-80
2021/10/15 07:34:19;;;;;;;3.60;3.30;;;;;;;;;;4992242;28;20187;-80
2021/10/15 07:36:46;;;;;;;4.40;3.22;;;;;;;;;;4993277;28;20210;-80
2021/10/15 07:39:15;;;;;;;3.08;2.78;;;;;;;;;;4993452;28;20235;-79
2021/10/15 07:41:45;;;;;;;3.28;2.75;;;;;;;;;;4992810;28;20262;-79
2021/10/15 07:44:13;;;;;;;3.75;3.30;;;;;;;;;;4988564;28;20266;-79
2021/10/15 07:46:41;;;;;;;3.35;3.05;;;;;;;;;;4953820;28;20205;-79
2021/10/15 07:49:11;;;;;;;2.97;2.78;;;;;;;;;;4973287;28;20699;-80
2021/10/15 07:51:38;;;;;;;4.63;3.00;;;;;;;;;;4973497;28;20275;-80
2021/10/15 07:54:06;;;;;;;4.53;3.00;;;;;;;;;;4973583;28;20200;-80
2021/10/15 07:56:37;;;;;;;3.30;3.05;;;;;;;;;;4973897;28;20184;-81
2021/10/15 07:59:05;;;;;;;3.35;3.05;;;;;;;;;;4973430;28;20220;-80
2021/10/15 08:01:32;;;;;;;3.33;2.72;;;;;;;;;;4973217;28;20682;-81
2021/10/15 08:04:00;;;;;;;3.05;2.78;;;;;;;;;;4973456;28;20203;-80
2021/10/15 08:06:29;;;;;;;3.55;2.75;;;;;;;;;;4973318;28;20223;-80
2021/10/15 08:08:56;;;;;;;2.97;2.67;;;;;;;;;;4973172;28;20212;-80
2021/10/15 08:11:23;;;;;;;2.75;2.55;;;;;;;;;;4973555;28;20204;-80
2021/10/15 08:13:51;;;;;;;3.50;3.20;;;;;;;;;;4973739;28;20187;-80
2021/10/15 08:16:19;;;;;;;2.95;2.63;;;;;;;;;;4973646;28;20209;-80
2021/10/15 08:18:48;;;;;;;5.53;3.53;;;;;;;;;;4973106;28;20220;-80
2021/10/15 08:21:16;;;;;;;3.08;2.83;;;;;;;;;;4974097;28;20287;-81
2021/10/15 08:23:45;;;;;;;2.90;2.45;;;;;;;;;;4974608;28;20263;-81
2021/10/15 08:26:13;;;;;;;2.60;2.40;;;;;;;;;;4973847;28;20718;-81
2021/10/15 08:28:40;;;;;;;2.55;2.20;;;;;;;;;;4973996;28;20224;-81
2021/10/15 08:31:08;;;;;;;3.15;2.55;;;;;;;;;;4973395;28;20255;-81
2021/10/15 08:33:35;;;;;;;3.60;2.85;;;;;;;;;;4974303;28;20193;-81
2021/10/15 08:36:09;;;;;;;4.60;3.28;;;;;;;;;;4975230;28;20200;-83
2021/10/15 08:38:36;;;;;;;2.80;2.60;;;;;;;;;;4976524;28;20220;-82
2021/10/15 08:41:05;;;;;;;3.25;2.70;;;;;;;;;;4975771;28;20185;-82
2021/10/15 08:43:37;;;;;;;2.35;2.15;;;;;;;;;;4975569;28;20580;-82
2021/10/15 08:46:06;;;;;;;2.72;2.53;;;;;;;;;;4975868;28;20299;-81
2021/10/15 08:48:37;;;;;;;2.78;2.55;;;;;;;;;;4965240;28;20232;-81
2021/10/15 08:51:05;;;;;;;3.70;2.97;;;;;;;;;;4955862;28;20181;-82
2021/10/15 08:53:39;;;;;;;4.20;2.70;;;;;;;;;;4956388;29;20569;-81
2021/10/15 08:56:08;;;;;;;2.58;2.33;;;;;;;;;;4957061;28;20527;-82
2021/10/15 08:58:42;;;;;;;2.75;2.55;;;;;;;;;;4945766;29;20229;-82
2021/10/15 09:01:10;;;;;;;3.10;2.67;;;;;;;;;;4941074;29;20202;-83
2021/10/15 09:03:38;;;;;;;5.30;3.20;;;;;;;;;;4940694;29;20202;-82
2021/10/15 09:06:08;;;;;;;3.58;3.15;;;;;;;;;;4940237;29;20206;-81
2021/10/15 09:08:48;;;;;;;3.90;3.20;;;;;;;;;;4939710;29;20232;-82
2021/10/15 09:11:29;;;;;;;3.28;2.97;;;;;;;;;;4941274;29;20198;-82
2021/10/15 09:14:10;;;;;;;3.83;2.95;;;;;;;;;;4940396;29;20206;-82
2021/10/15 09:17:09;;;;;;;4.82;3.47;;;;;;;;;;4941411;29;20246;-82
2021/10/15 09:19:40;;;;;;;6.53;3.85;;;;;;;;;;4881263;29;20215;-81
2021/10/15 09:22:21;;;;;;;4.15;3.22;;;;;;;;;;4928674;29;20776;-83
2021/10/15 09:24:53;;;;;;;3.83;3.20;;;;;;;;;;4940586;29;20190;-82
2021/10/15 09:27:32;;;;;;;2.88;2.30;;;;;;;;;;4940478;29;20216;-82
2021/10/15 09:30:03;;;;;;;3.88;2.92;;;;;;;;;;4940131;29;20728;-82
2021/10/15 09:32:34;;;;;;;3.33;3.03;;;;;;;;;;4940912;29;20198;-82
2021/10/15 09:35:02;;;;;;;4.00;3.60;;;;;;;;;;4940571;29;20200;-82
2021/10/15 09:37:32;;;;;;;2.58;2.38;;;;;;;;;;4940682;29;20221;-83
2021/10/15 09:40:07;;;;;;;3.58;3.05;;;;;;;;;;4940350;29;20190;-82
2021/10/15 09:42:39;;;;;;;4.45;3.40;;;;;;;;;;4940601;29;20213;-83
2021/10/15 09:45:15;;;;;;;7.18;3.78;;;;;;;;;;4940378;29;20193;-84
2021/10/15 09:47:44;;;;;;;2.90;2.20;;;;;;;;;;4940087;29;20232;-83
2021/10/15 09:50:13;;;;;;;2.60;2.40;;;;;;;;;;4940851;29;20209;-82
2021/10/15 09:52:44;;;;;;;2.08;1.73;;;;;;;;;;4940465;29;20244;-83
2021/10/15 09:55:18;;;;;;;2.42;2.22;;;;;;;;;;4940125;29;20197;-83
2021/10/15 09:57:50;;;;;;;3.45;3.15;;;;;;;;;;4939900;29;20229;-82
2021/10/15 10:00:20;;;;;;;4.05;3.15;;;;;;;;;;4939806;29;20212;-83
2021/10/15 10:02:49;;;;;;;3.42;2.70;;;;;;;;;;4940434;29;20193;-82
2021/10/15 10:05:19;;;;;;;4.10;2.63;;;;;;;;;;4940193;29;20186;-83
2021/10/15 10:07:50;;;;;;;2.55;2.35;;;;;;;;;;4939617;29;20760;-83
2021/10/15 10:10:20;;;;;;;3.50;3.20;;;;;;;;;;4940439;29;20190;-82
2021/10/15 10:12:50;;;;;;;3.25;2.20;;;;;;;;;;4940686;29;20189;-83
2021/10/15 10:15:19;;;;;;;9.95;3.05;;;;;;;;;;4939830;29;20662;-82
2021/10/15 10:17:54;;;;;;;2.63;2.42;;;;;;;;;;4940221;29;20221;-83
2021/10/15 10:20:27;;;;;;;2.58;2.38;;;;;;;;;;4939858;29;20256;-83
2021/10/15 10:23:07;;;;;;;2.45;2.25;;;;;;;;;;4939630;29;20556;-83
2021/10/15 10:25:37;;;;;;;2.15;1.88;;;;;;;;;;4939922;29;20210;-82
2021/10/15 10:28:22;;;;;;;2.22;2.08;;;;;;;;;;4939321;29;20221;-82
2021/10/15 10:30:53;;;;;;;2.17;1.98;;;;;;;;;;4939604;29;20202;-83
2021/10/15 10:33:22;;;;;;;1.63;1.52;;;;;;;;;;4972546;28;20231;-83
2021/10/15 10:35:50;;;;;;;2.58;2.20;;;;;;;;;;4978665;28;20188;-83
2021/10/15 10:38:31;;;;;;;1.50;1.40;;;;;;;;;;4978473;28;20247;-83
2021/10/15 10:41:21;;;;;;;2.50;2.25;;;;;;;;;;4978619;28;20239;-83
2021/10/15 10:44:17;;;;;;;1.77;1.67;;;;;;;;;;4978580;28;20189;-83
2021/10/15 10:47:00;;;;;;;2.30;2.10;;;;;;;;;;4931715;28;20232;-83
2021/10/15 10:49:27;;;;;;;3.17;2.95;;;;;;;;;;4977684;28;20211;-82
2021/10/15 10:52:18;;;;;;;2.35;2.15;;;;;;;;;;4983933;28;20228;-83
2021/10/15 10:54:48;;;;;;;2.95;2.47;;;;;;;;;;4996214;28;20192;-82
2021/10/15 10:57:27;;;;;;;4.28;3.20;;;;;;;;;;4996145;28;20555;-82
2021/10/15 11:00:22;;;;;;;6.43;4.35;;;;;;;;;;4996584;28;20219;-83
2021/10/15 11:02:52;;;;;;;3.13;2.83;;;;;;;;;;4997056;28;20211;-82
2021/10/15 11:05:35;;;;;;;3.20;2.90;;;;;;;;;;4996464;28;20180;-82
2021/10/15 11:08:33;;;;;;;2.80;2.60;;;;;;;;;;4996181;28;20610;-82
2021/10/15 11:11:43;;;;;;;2.20;1.92;;;;;;;;;;4997277;28;20203;-82
2021/10/15 11:14:24;;;;;;;2.45;1.77;;;;;;;;;;4991197;28;20206;-82
2021/10/15 11:16:53;;;;;;;1.48;1.35;;;;;;;;;;4996991;28;20220;-81
2021/10/15 11:19:21;;;;;;;1.30;1.20;;;;;;;;;;4992941;28;20227;-80
2021/10/15 11:22:02;;;;;;;1.10;1.10;;;;;;;;;;4995940;28;20188;-82
2021/10/15 11:24:29;;;;;;;1.20;1.10;;;;;;;;;;4996091;28;20203;-82
2021/10/15 11:26:56;;;;;;;1.45;1.35;;;;;;;;;;4996279;28;20570;-82
2021/10/15 11:29:24;;;;;;;1.00;1.00;;;;;;;;;;4995619;28;20227;-81
2021/10/15 11:31:59;;;;;;;0.80;0.80;;;;;;;;;;4995688;28;20211;-82
2021/10/15 11:34:26;;;;;;;1.10;1.10;;;;;;;;;;4995671;28;20206;-81
2021/10/15 11:37:04;;;;;;;1.30;0.90;;;;;;;;;;4994701;28;20210;-81
2021/10/15 11:39:33;;;;;;;0.70;0.70;;;;;;;;;;4995891;28;20226;-81
2021/10/15 11:42:00;;;;;;;1.05;0.90;;;;;;;;;;4994685;28;20204;-80
2021/10/15 11:44:35;;;;;;;0.63;0.63;;;;;;;;;;4996081;28;20210;-80
2021/10/15 11:47:04;;;;;;;0.70;0.70;;;;;;;;;;4995542;28;20258;-81
2021/10/15 11:49:39;;;;;;;0.52;0.52;;;;;;;;;;4994587;28;20207;-81
2021/10/15 11:52:06;;;;;;;0.85;0.77;;;;;;;;;;4995829;28;20237;-81
2021/10/15 11:54:34;;;;;;;0.85;0.85;;;;;;;;;;4995943;28;20208;-81
2021/10/15 11:57:01;;;;;;;1.00;0.90;;;;;;;;;;4995610;28;20214;-80
2021/10/15 11:59:29;;;;;;;0.98;0.98;;;;;;;;;;4995557;28;20663;-81
2021/10/15 12:02:00;;;;;;;0.60;0.60;;;;;;;;;;4995628;28;20203;-81
2021/10/15 12:04:29;;;;;;;0.60;0.60;;;;;;;;;;4995841;28;20195;-81
2021/10/15 12:06:57;;;;;;;0.70;0.70;;;;;;;;;;4994989;28;20206;-80
2021/10/15 12:09:25;;;;;;;0.98;0.98;;;;;;;;;;4995575;28;20235;-81
2021/10/15 12:11:54;;;;;;;0.80;0.80;;;;;;;;;;4995830;28;20188;-81
2021/10/15 12:14:28;;;;;;;0.80;0.80;;;;;;;;;;4995655;28;20212;-81
2021/10/15 12:16:59;;;;;;;0.85;0.85;;;;;;;;;;4996516;28;20190;-81
2021/10/15 12:19:31;;;;;;;2.65;0.90;;;;;;;;;;4995989;28;20196;-84
2021/10/15 12:22:08;;;;;;;0.90;0.90;;;;;;;;;;4995274;28;20654;-80
2021/10/15 12:24:38;;;;;;;0.90;0.90;;;;;;;;;;4995390;28;20199;-80
2021/10/15 12:27:11;;;;;;;1.10;0.90;;;;;;;;;;4995513;28;20211;-81
2021/10/15 12:29:42;;;;;;;0.90;0.90;;;;;;;;;;4995381;28;20214;-81
2021/10/15 12:32:16;;;;;;;0.70;0.70;;;;;;;;;;4997678;28;20279;-81
2021/10/15 12:35:09;;;;;;;1.00;1.00;;;;;;;;;;4999767;28;20183;-81
2021/10/15 12:37:44;;;;;;;0.90;0.90;;;;;;;;;;4998855;28;20239;-82
2021/10/15 12:40:22;;;;;;;0.93;0.90;;;;;;;;;;4998546;28;20654;-81
2021/10/15 12:43:01;;;;;;;0.95;0.95;;;;;;;;;;4998788;28;20187;-81
2021/10/15 12:45:31;;;;;;;1.27;1.10;;;;;;;;;;4999231;28;20211;-81
2021/10/15 12:48:01;;;;;;;1.67;1.17;;;;;;;;;;4999140;28;20596;-81
2021/10/15 12:50:33;;;;;;;1.40;1.20;;;;;;;;;;4999640;28;20643;-81
2021/10/15 12:53:12;;;;;;;1.02;1.00;;;;;;;;;;4998142;28;20713;-81
2021/10/15 12:55:50;;;;;;;3.03;1.55;;;;;;;;;;4998418;28;20586;-81
2021/10/15 12:58:18;;;;;;;1.00;1.00;;;;;;;;;;4999278;28;20215;-81
2021/10/15 13:00:52;;;;;;;1.85;1.75;;;;;;;;;;4998838;28;20187;-82
2021/10/15 13:03:20;;;;;;;1.00;1.00;;;;;;;;;;4998549;28;20206;-81
2021/10/15 13:05:51;;;;;;;1.30;1.00;;;;;;;;;;4998458;28;20217;-81
2021/10/15 13:08:18;;;;;;;1.42;1.33;;;;;;;;;;4997590;28;20228;-81
2021/10/15 13:10:47;;;;;;;1.13;1.02;;;;;;;;;;4999160;28;20184;-81
2021/10/15 13:13:16;;;;;;;0.90;0.90;;;;;;;;;;4999835;28;20227;-82
2021/10/15 13:15:45;;;;;;;0.85;0.85;;;;;;;;;;4998943;28;20673;-81
2021/10/15 13:18:13;;;;;;;1.15;1.10;;;;;;;;;;4999167;28;20234;-81
2021/10/15 13:20:40;;;;;;;1.05;1.02;;;;;;;;;;4999361;28;20196;-81
2021/10/15 13:23:09;;;;;;;0.93;0.90;;;;;;;;;;4989324;28;20218;-81
2021/10/15 13:25:37;;;;;;;0.50;0.50;;;;;;;;;;4987434;28;20196;-81
2021/10/15 13:28:04;;;;;;;0.70;0.70;;;;;;;;;;4980940;28;20224;-81
2021/10/15 13:30:32;;;;;;;0.63;0.60;;;;;;;;;;4979025;28;20185;-81
2021/10/15 13:32:59;;;;;;;0.70;0.70;;;;;;;;;;4989811;28;20207;-81
2021/10/15 13:35:28;;;;;;;0.77;0.57;;;;;;;;;;4997247;28;20184;-81
2021/10/15 13:37:58;;;;;;;0.65;0.65;;;;;;;;;;4978797;28;20288;-80
2021/10/15 13:40:29;;;;;;;1.75;0.70;;;;;;;;;;4979298;28;20219;-81
2021/10/15 13:51:22;;;;;;;0.77;0.75;;;;;;;;;;4968019;28;20211;-81
2021/10/15 13:53:49;;;;;;;0.63;0.63;;;;;;;;;;4992931;28;20188;-81
2021/10/15 13:56:19;;;;;;;0.70;0.70;;;;;;;;;;4998242;28;20187;-81
2021/10/15 13:58:48;;;;;;;0.60;0.57;;;;;;;;;;4997546;28;20223;-81
2021/10/15 14:01:18;;;;;;;0.80;0.80;;;;;;;;;;4997415;28;20195;-81
2021/10/15 14:06:39;;;;;;;0.50;0.50;;;;;;;;;;4998092;28;20278;-81
2021/10/15 14:09:07;;;;;;;0.98;0.80;;;;;;;;;;4997832;28;20227;-81
2021/10/15 14:11:36;;;;;;;1.23;1.00;;;;;;;;;;4997424;28;20192;-81
2021/10/15 14:14:04;;;;;;;0.68;0.68;;;;;;;;;;4997518;28;20214;-81
2021/10/15 14:16:31;;;;;;;0.85;0.85;;;;;;;;;;4997531;28;20183;-81
2021/10/15 14:18:59;;;;;;;0.60;0.60;;;;;;;;;;4998141;28;20231;-82
2021/10/15 14:21:26;;;;;;;1.23;1.13;;;;;;;;;;4996348;28;20211;-83
2021/10/15 14:23:54;;;;;;;1.05;0.70;;;;;;;;;;4977374;28;20200;-82
2021/10/15 14:26:21;;;;;;;3.03;1.20;;;;;;;;;;4978313;28;20204;-82
2021/10/15 14:28:51;;;;;;;0.38;0.38;;;;;;;;;;4978131;28;20607;-82
2021/10/15 14:31:19;;;;;;;0.80;0.63;;;;;;;;;;4978138;28;20212;-82
2021/10/15 14:33:47;;;;;;;0.60;0.60;;;;;;;;;;4978367;28;20559;-83
2021/10/15 14:36:14;;;;;;;1.95;0.90;;;;;;;;;;4978037;28;20289;-84
2021/10/15 14:38:42;;;;;;;1.00;0.60;;;;;;;;;;4978211;28;20216;-84
2021/10/15 14:41:09;;;;;;;1.38;0.95;;;;;;;;;;4977652;28;20572;-83
2021/10/15 14:43:37;;;;;;;1.17;0.77;;;;;;;;;;4978021;28;20208;-83
2021/10/15 14:46:07;;;;;;;1.20;0.90;;;;;;;;;;4978630;28;20208;-83
2021/10/15 14:48:35;;;;;;;1.13;0.82;;;;;;;;;;4978065;28;20224;-83
2021/10/15 14:51:02;;;;;;;0.93;0.57;;;;;;;;;;4978748;28;20239;-83
2021/10/15 14:53:30;;;;;;;0.60;0.60;;;;;;;;;;4959021;29;20652;-83
2021/10/15 14:55:57;;;;;;;2.28;0.50;;;;;;;;;;4958258;28;20220;-82
2021/10/15 14:58:24;;;;;;;4.57;0.50;;;;;;;;;;4959214;29;20221;-83
2021/10/15 15:00:55;;;;;;;1.88;0.70;;;;;;;;;;4959494;28;20193;-84
2021/10/15 15:03:24;;;;;;;0.55;0.45;;;;;;;;;;4964906;28;20205;-84
2021/10/15 15:05:51;;;;;;;0.30;0.30;;;;;;;;;;4959041;28;20193;-84
2021/10/15 15:08:19;;;;;;;0.47;0.47;;;;;;;;;;4959051;29;20319;-83
2021/10/15 15:10:46;;;;;;;0.57;0.57;;;;;;;;;;4959475;29;20201;-84
2021/10/15 15:13:14;;;;;;;0.50;0.50;;;;;;;;;;4959560;29;20215;-85
2021/10/15 15:15:41;;;;;;;0.60;0.60;;;;;;;;;;4959070;29;20188;-82
2021/10/15 15:18:09;;;;;;;0.63;0.63;;;;;;;;;;4973463;28;20232;-86
2021/10/15 15:20:39;;;;;;;0.85;0.85;;;;;;;;;;4977649;28;20256;-85